Time;durP1;ratioP1;P1;durP2;ratioP2;P2;SDS_P1;SDS_P2;PMS_P1;PMS_P2;Temp;Humidity;BMP_temperature;BMP_pressure;BME280_temperature;BME280_humidity;BME280_pressure;Samples;Min_cycle;Max_cycle;Signal;HPM_P1;HPM_P2
2023/03/18 00:01:16;;;;;;;18.10;10.40;;;11.30;99.90;;;;;;5043410;28;20075;-74
2023/03/18 00:03:42;;;;;;;17.38;9.43;;;11.30;99.90;;;;;;5059857;28;20079;-75
2023/03/18 00:06:11;;;;;;;17.77;10.27;;;11.20;99.90;;;;;;5059206;28;20678;-72
2023/03/18 00:08:39;;;;;;;20.60;9.98;;;11.20;99.90;;;;;;5060243;28;20131;-74
2023/03/18 00:11:06;;;;;;;16.33;8.82;;;11.50;99.90;;;;;;5061718;28;20080;-75
2023/03/18 00:13:33;;;;;;;16.85;9.50;;;11.20;99.90;;;;;;5057246;28;20128;-74
2023/03/18 00:16:00;;;;;;;18.52;9.57;;;11.20;99.90;;;;;;5061879;28;20145;-74
2023/03/18 00:18:26;;;;;;;17.13;10.02;;;11.20;99.90;;;;;;5060900;28;20517;-74
2023/03/18 00:20:53;;;;;;;21.20;9.85;;;11.20;99.90;;;;;;5058151;28;20552;-74
2023/03/18 00:23:19;;;;;;;17.42;9.25;;;11.20;99.90;;;;;;5058293;28;20048;-73
2023/03/18 00:25:51;;;;;;;17.80;9.02;;;11.20;99.90;;;;;;5061535;28;20045;-74
2023/03/18 00:28:17;;;;;;;16.45;9.05;;;11.10;99.90;;;;;;5059420;28;20052;-74
2023/03/18 00:30:43;;;;;;;18.60;9.30;;;11.10;99.90;;;;;;5063270;28;20094;-73
2023/03/18 00:33:09;;;;;;;19.88;9.52;;;11.10;99.90;;;;;;5049677;28;20598;-74
2023/03/18 00:35:36;;;;;;;16.05;9.23;;;11.10;99.90;;;;;;5061235;28;20137;-74
2023/03/18 00:38:06;;;;;;;22.35;9.35;;;11.10;99.90;;;;;;5062188;28;20048;-73
2023/03/18 00:40:42;;;;;;;17.10;9.35;;;11.10;99.90;;;;;;5047335;28;20438;-73
2023/03/18 00:43:09;;;;;;;20.45;9.80;;;11.10;99.90;;;;;;5063983;28;20063;-73
2023/03/18 00:45:39;;;;;;;16.20;10.23;;;11.10;99.90;;;;;;5048087;28;20040;-74
2023/03/18 00:48:06;;;;;;;16.70;10.10;;;11.10;99.90;;;;;;5063552;28;20432;-74
2023/03/18 00:50:35;;;;;;;18.17;9.48;;;11.10;99.90;;;;;;5064433;28;20036;-73
2023/03/18 00:53:02;;;;;;;19.27;10.27;;;11.00;99.90;;;;;;5062779;28;20110;-74
2023/03/18 00:55:28;;;;;;;17.23;10.40;;;11.00;99.90;;;;;;5063738;28;20563;-73
2023/03/18 00:57:53;;;;;;;20.60;9.90;;;11.10;99.90;;;;;;5066874;28;20032;-73
2023/03/18 01:00:20;;;;;;;19.50;10.88;;;11.00;99.90;;;;;;5066289;28;20051;-73
2023/03/18 01:02:48;;;;;;;20.20;10.45;;;11.00;99.90;;;;;;5050391;28;20044;-74
2023/03/18 01:05:15;;;;;;;18.55;10.82;;;11.00;99.90;;;;;;5062013;28;20106;-73
2023/03/18 01:07:44;;;;;;;22.20;12.50;;;11.00;99.90;;;;;;5066511;28;20047;-74
2023/03/18 01:10:14;;;;;;;20.55;11.23;;;11.00;99.90;;;;;;5067093;28;20044;-74
2023/03/18 01:12:41;;;;;;;18.40;11.73;;;11.00;99.90;;;;;;5066727;28;20086;-74
2023/03/18 01:15:11;;;;;;;18.67;11.90;;;11.00;99.90;;;;;;5064581;28;20044;-74
2023/03/18 01:17:37;;;;;;;22.08;13.35;;;11.00;99.90;;;;;;5063047;28;20576;-73
2023/03/18 01:20:03;;;;;;;24.70;12.60;;;11.00;99.90;;;;;;5063109;28;20120;-74
2023/03/18 01:22:29;;;;;;;20.63;12.55;;;11.00;99.90;;;;;;5064660;28;20040;-74
2023/03/18 01:24:56;;;;;;;21.65;12.90;;;10.90;99.90;;;;;;5063617;28;20048;-74
2023/03/18 01:27:22;;;;;;;23.08;14.80;;;10.90;99.90;;;;;;5064537;28;20480;-73
2023/03/18 01:29:47;;;;;;;20.73;14.60;;;10.90;99.90;;;;;;5079072;28;20659;-74
2023/03/18 01:32:14;;;;;;;25.60;14.40;;;10.90;99.90;;;;;;5064588;28;20040;-73
2023/03/18 01:34:40;;;;;;;21.77;13.88;;;10.90;99.90;;;;;;5063591;28;20407;-74
2023/03/18 01:37:06;;;;;;;22.63;14.63;;;10.90;99.90;;;;;;5062283;28;20028;-73
2023/03/18 01:39:33;;;;;;;21.20;15.15;;;10.90;99.90;;;;;;5062231;28;20379;-74
2023/03/18 01:41:59;;;;;;;22.75;15.55;;;10.80;99.90;;;;;;5062734;28;20089;-73
2023/03/18 01:44:26;;;;;;;24.63;15.77;;;10.80;99.90;;;;;;5065171;28;20040;-73
2023/03/18 01:46:52;;;;;;;27.52;15.70;;;10.80;99.90;;;;;;5061694;28;20036;-74
2023/03/18 01:49:23;;;;;;;26.35;16.20;;;10.80;99.90;;;;;;5044610;28;20426;-74
2023/03/18 01:52:02;;;;;;;23.13;16.52;;;10.70;99.90;;;;;;5063666;28;20049;-73
2023/03/18 01:54:31;;;;;;;27.05;17.35;;;10.70;99.90;;;;;;5060476;28;20110;-73
2023/03/18 01:56:57;;;;;;;28.42;17.77;;;10.70;99.90;;;;;;5046804;28;20036;-73
2023/03/18 01:59:27;;;;;;;27.92;18.83;;;10.70;99.90;;;;;;5046850;28;20140;-74
2023/03/18 02:02:05;;;;;;;28.35;18.27;;;10.60;99.90;;;;;;5061141;28;20115;-73
2023/03/18 02:04:36;;;;;;;29.05;19.15;;;10.60;99.90;;;;;;5064401;28;20048;-74
2023/03/18 02:07:03;;;;;;;;;;;10.60;99.90;;;;;;5063569;28;20668;-74
2023/03/18 02:09:29;;;;;;;31.10;18.40;;;10.60;99.90;;;;;;5062411;28;19931;-74
2023/03/18 02:11:55;;;;;;;30.65;19.38;;;10.50;99.90;;;;;;5063758;28;20062;-74
2023/03/18 02:14:25;;;;;;;30.73;18.65;;;10.50;99.90;;;;;;5062017;28;20576;-73
2023/03/18 02:17:04;;;;;;;30.70;19.52;;;10.50;99.90;;;;;;5061453;28;20043;-74
2023/03/18 02:19:52;;;;;;;30.48;20.67;;;10.40;99.90;;;;;;5063146;28;20094;-75
2023/03/18 02:22:29;;;;;;;28.20;19.40;;;10.40;99.90;;;;;;5060967;28;20379;-74
2023/03/18 02:25:21;;;;;;;27.83;19.55;;;10.40;99.90;;;;;;5045539;28;20149;-74
2023/03/18 02:27:54;;;;;;;28.75;20.63;;;10.40;99.90;;;;;;5032385;28;20517;-75
2023/03/18 02:30:26;;;;;;;31.50;19.02;;;10.40;99.90;;;;;;5043737;28;20045;-75
2023/03/18 02:32:55;;;;;;;31.05;20.50;;;10.40;99.90;;;;;;5061536;28;20111;-75
2023/03/18 02:35:21;;;;;;;30.88;20.15;;;10.40;99.90;;;;;;5059740;28;20052;-74
2023/03/18 02:37:47;;;;;;;26.83;19.58;;;10.30;99.90;;;;;;5059029;28;20097;-74
2023/03/18 02:40:25;;;;;;;30.90;20.30;;;10.40;99.90;;;;;;5064046;28;20079;-73
2023/03/18 02:42:51;;;;;;;33.92;19.98;;;10.30;99.90;;;;;;5055325;28;20041;-75
2023/03/18 02:45:39;;;;;;;30.42;21.38;;;10.30;99.90;;;;;;5059562;28;20040;-74
2023/03/18 02:48:07;;;;;;;28.85;20.33;;;10.30;99.90;;;;;;5061584;28;20036;-74
2023/03/18 02:50:33;;;;;;;31.05;20.48;;;10.40;99.90;;;;;;5051188;28;20642;-74
2023/03/18 02:53:01;;;;;;;34.42;22.75;;;10.30;99.90;;;;;;5049832;28;20033;-74
2023/03/18 02:55:27;;;;;;;30.90;21.08;;;10.30;99.90;;;;;;5059567;28;20467;-74
2023/03/18 02:57:52;;;;;;;32.28;23.90;;;10.20;99.90;;;;;;5056687;28;20040;-74
2023/03/18 03:00:18;;;;;;;38.38;24.88;;;10.50;99.90;;;;;;5070516;28;20062;-75
2023/03/18 03:02:44;;;;;;;32.63;22.20;;;10.20;99.90;;;;;;5059687;28;20126;-74
2023/03/18 03:05:11;;;;;;;29.65;22.75;;;10.10;99.90;;;;;;5063293;28;20404;-75
2023/03/18 03:07:36;;;;;;;35.13;23.88;;;10.00;99.90;;;;;;5042752;28;20075;-74
2023/03/18 03:10:04;;;;;;;35.38;24.42;;;10.00;99.90;;;;;;5057735;28;20124;-74
2023/03/18 03:12:30;;;;;;;37.60;24.58;;;10.00;99.90;;;;;;5051369;28;20093;-77
2023/03/18 03:14:56;;;;;;;31.13;23.25;;;10.00;99.90;;;;;;5059316;28;20049;-74
2023/03/18 03:17:23;;;;;;;36.90;24.58;;;10.00;99.90;;;;;;5072044;28;20324;-74
2023/03/18 03:19:49;;;;;;;34.33;24.73;;;10.30;99.90;;;;;;5076490;28;20090;-73
2023/03/18 03:22:16;;;;;;;38.00;23.90;;;10.00;99.90;;;;;;5058590;28;20527;-75
2023/03/18 03:24:43;;;;;;;32.95;23.77;;;9.90;99.90;;;;;;5062670;28;20470;-75
2023/03/18 03:27:10;;;;;;;37.35;25.10;;;9.90;99.90;;;;;;5044877;28;20066;-74
2023/03/18 03:29:35;;;;;;;35.47;24.52;;;9.80;99.90;;;;;;5057191;28;20041;-75
2023/03/18 03:32:01;;;;;;;36.88;23.15;;;9.80;99.90;;;;;;5061013;28;20121;-74
2023/03/18 03:34:27;;;;;;;34.50;23.88;;;9.80;99.90;;;;;;5060469;28;20850;-74
2023/03/18 03:36:53;;;;;;;37.80;24.83;;;9.80;99.90;;;;;;5061861;28;20079;-74
2023/03/18 03:39:19;;;;;;;35.70;23.73;;;9.80;99.90;;;;;;5057735;28;20546;-75
2023/03/18 03:41:44;;;;;;;36.83;23.42;;;9.80;99.90;;;;;;5058794;28;20048;-74
2023/03/18 03:44:10;;;;;;;33.83;24.92;;;9.80;99.90;;;;;;5060001;28;20039;-75
2023/03/18 03:46:36;;;;;;;37.35;24.17;;;9.80;99.90;;;;;;5061366;28;20130;-75
2023/03/18 03:49:03;;;;;;;37.90;25.15;;;9.80;99.90;;;;;;5060809;28;20115;-75
2023/03/18 03:51:29;;;;;;;35.92;24.00;;;9.80;99.90;;;;;;5059769;28;20044;-75
2023/03/18 03:53:55;;;;;;;36.97;23.92;;;9.80;99.90;;;;;;5063144;28;20050;-74
2023/03/18 03:56:21;;;;;;;38.38;25.33;;;9.70;99.90;;;;;;5038986;28;20674;-74
2023/03/18 03:58:46;;;;;;;35.80;24.88;;;9.80;99.90;;;;;;5055240;28;20041;-75
2023/03/18 04:01:12;;;;;;;32.70;22.95;;;9.70;99.90;;;;;;5060687;28;20044;-75
2023/03/18 04:03:38;;;;;;;36.22;24.83;;;9.70;99.90;;;;;;5062019;28;20493;-73
2023/03/18 04:06:05;;;;;;;41.65;27.05;;;9.70;99.90;;;;;;5061777;28;20033;-74
2023/03/18 04:08:31;;;;;;;36.42;24.65;;;9.70;99.90;;;;;;5060000;28;20112;-74
2023/03/18 04:10:58;;;;;;;38.17;24.63;;;9.70;99.90;;;;;;5061835;28;20481;-74
2023/03/18 04:13:23;;;;;;;41.47;26.30;;;9.70;99.90;;;;;;5059956;28;20121;-73
2023/03/18 04:15:49;;;;;;;38.45;24.85;;;9.70;99.90;;;;;;5063434;28;20044;-73
2023/03/18 04:18:16;;;;;;;38.30;25.00;;;9.70;99.90;;;;;;5062141;28;20044;-74
2023/03/18 04:20:43;;;;;;;35.75;23.80;;;9.70;99.90;;;;;;5057899;28;20052;-74
2023/03/18 04:23:09;;;;;;;34.65;23.77;;;9.70;99.90;;;;;;5060260;28;20040;-74
2023/03/18 04:25:35;;;;;;;34.90;22.92;;;9.70;99.90;;;;;;5060259;28;20595;-73
2023/03/18 04:28:01;;;;;;;34.47;22.42;;;9.60;99.90;;;;;;5058374;28;20091;-74
2023/03/18 04:30:27;;;;;;;38.15;24.38;;;9.60;99.90;;;;;;5061308;28;20584;-74
2023/03/18 04:32:53;;;;;;;33.10;22.27;;;9.60;99.90;;;;;;5062063;28;20079;-73
2023/03/18 04:35:20;;;;;;;32.17;21.95;;;9.60;99.90;;;;;;5059924;28;20123;-73
2023/03/18 04:37:46;;;;;;;36.88;23.67;;;9.60;99.90;;;;;;5059665;28;20105;-73
2023/03/18 04:40:12;;;;;;;34.20;22.02;;;9.60;99.90;;;;;;5059422;28;20124;-73
2023/03/18 04:42:38;;;;;;;32.70;22.73;;;9.60;99.90;;;;;;5058417;28;20131;-74
2023/03/18 04:45:05;;;;;;;35.90;22.73;;;9.60;99.90;;;;;;5062461;28;20036;-73
2023/03/18 04:47:32;;;;;;;34.50;21.83;;;9.60;99.90;;;;;;5043392;28;20037;-74
2023/03/18 04:49:58;;;;;;;33.28;22.42;;;9.60;99.90;;;;;;5061856;28;20575;-74
2023/03/18 04:52:24;;;;;;;31.25;21.20;;;9.50;99.90;;;;;;5057885;28;20040;-73
2023/03/18 04:54:50;;;;;;;30.15;21.70;;;9.80;99.90;;;;;;5059565;28;20153;-74
2023/03/18 04:57:19;;;;;;;35.00;22.60;;;9.60;99.90;;;;;;5059490;28;20669;-74
2023/03/18 04:59:45;;;;;;;34.95;21.75;;;9.50;99.90;;;;;;5062041;28;20147;-74
2023/03/18 05:02:10;;;;;;;31.02;20.65;;;9.50;99.90;;;;;;5043612;28;20132;-74
2023/03/18 05:04:37;;;;;;;32.42;21.70;;;9.50;99.90;;;;;;5060010;28;20040;-74
2023/03/18 05:07:03;;;;;;;32.75;21.17;;;9.50;99.90;;;;;;5041013;28;20079;-74
2023/03/18 05:09:29;;;;;;;34.80;21.60;;;9.50;99.90;;;;;;5057831;28;20045;-74
2023/03/18 05:11:54;;;;;;;32.17;21.23;;;9.50;99.90;;;;;;5059522;28;20052;-74
2023/03/18 05:14:20;;;;;;;35.20;20.90;;;9.50;99.90;;;;;;5061427;28;20167;-74
2023/03/18 05:16:46;;;;;;;35.88;20.30;;;9.50;99.90;;;;;;5062106;28;20040;-74
2023/03/18 05:19:13;;;;;;;36.17;21.33;;;9.50;99.90;;;;;;5044335;28;20037;-74
2023/03/18 05:21:40;;;;;;;33.55;21.02;;;9.50;99.90;;;;;;5044206;28;20051;-73
2023/03/18 05:24:06;;;;;;;34.70;21.67;;;9.60;99.90;;;;;;5061307;28;20048;-74
2023/03/18 05:26:32;;;;;;;37.60;21.90;;;9.50;99.90;;;;;;5057830;28;20040;-73
2023/03/18 05:28:58;;;;;;;34.38;21.55;;;9.50;99.90;;;;;;5047940;28;20055;-73
2023/03/18 05:31:24;;;;;;;37.40;22.45;;;9.50;99.90;;;;;;5062497;28;20052;-73
2023/03/18 05:33:50;;;;;;;33.45;22.13;;;9.50;99.90;;;;;;5047741;28;20053;-73
2023/03/18 05:36:18;;;;;;;36.42;20.83;;;9.50;99.90;;;;;;5064560;28;20055;-73
2023/03/18 05:38:44;;;;;;;39.22;21.55;;;9.50;99.90;;;;;;5069445;28;20033;-73
2023/03/18 05:41:10;;;;;;;37.13;20.98;;;9.50;99.90;;;;;;5067690;28;20051;-70
2023/03/18 05:43:35;;;;;;;37.60;21.73;;;9.60;99.90;;;;;;5063083;28;20215;-70
2023/03/18 05:46:03;;;;;;;36.42;22.20;;;9.60;99.90;;;;;;5063775;28;20044;-70
2023/03/18 05:48:28;;;;;;;42.13;22.83;;;9.60;99.90;;;;;;5060862;28;20124;-71
2023/03/18 05:50:54;;;;;;;45.08;23.70;;;9.60;99.90;;;;;;5064846;28;20151;-71
2023/03/18 05:53:20;;;;;;;42.03;23.75;;;9.60;99.90;;;;;;5063372;28;20402;-71
2023/03/18 05:55:47;;;;;;;48.15;26.00;;;9.60;99.90;;;;;;5064208;28;20052;-71
2023/03/18 05:58:13;;;;;;;46.38;25.15;;;9.60;99.90;;;;;;5063545;28;20076;-71
2023/03/18 06:00:39;;;;;;;45.50;24.98;;;9.60;99.90;;;;;;5062080;28;20080;-71
2023/03/18 06:03:05;;;;;;;49.40;24.65;;;9.60;99.90;;;;;;5056610;28;20500;-71
2023/03/18 06:05:31;;;;;;;47.25;24.08;;;9.50;99.90;;;;;;5062789;28;20048;-71
2023/03/18 06:07:57;;;;;;;48.25;25.42;;;9.60;99.90;;;;;;5061282;28;20059;-71
2023/03/18 06:10:24;;;;;;;45.80;25.15;;;9.60;99.90;;;;;;5046003;28;20067;-71
2023/03/18 06:12:50;;;;;;;44.25;24.73;;;9.60;99.90;;;;;;5058782;28;20050;-71
2023/03/18 06:15:17;;;;;;;41.92;24.23;;;9.70;99.90;;;;;;5048098;28;20063;-71
2023/03/18 06:17:43;;;;;;;45.03;24.73;;;9.60;99.90;;;;;;5059775;28;20040;-70
2023/03/18 06:20:10;;;;;;;39.97;23.42;;;9.60;99.90;;;;;;5064601;28;20580;-71
2023/03/18 06:22:37;;;;;;;46.90;24.83;;;9.60;99.90;;;;;;5062564;28;20434;-71
2023/03/18 06:25:03;;;;;;;44.45;26.27;;;9.70;99.90;;;;;;5062524;28;20044;-71
2023/03/18 06:27:30;;;;;;;40.85;24.00;;;9.60;99.90;;;;;;5041658;28;20121;-71
2023/03/18 06:29:56;;;;;;;46.92;24.50;;;9.60;99.90;;;;;;5040644;28;20059;-71
2023/03/18 06:32:22;;;;;;;45.53;27.10;;;9.60;99.90;;;;;;5042018;28;20052;-71
2023/03/18 06:34:48;;;;;;;43.55;23.98;;;9.60;99.90;;;;;;5060334;28;20680;-70
2023/03/18 06:37:14;;;;;;;42.03;23.95;;;9.70;99.90;;;;;;5059038;28;20072;-71
2023/03/18 06:39:40;;;;;;;39.53;25.00;;;9.70;99.90;;;;;;5059033;28;20562;-71
2023/03/18 06:42:05;;;;;;;43.75;25.95;;;9.70;99.90;;;;;;5056968;28;20122;-71
2023/03/18 06:44:31;;;;;;;47.60;27.35;;;9.60;99.90;;;;;;5060773;28;20125;-71
2023/03/18 06:46:57;;;;;;;38.25;24.02;;;9.70;99.90;;;;;;5049986;28;20128;-71
2023/03/18 06:49:22;;;;;;;45.35;26.27;;;9.80;99.90;;;;;;5061695;28;20237;-70
2023/03/18 06:51:48;;;;;;;45.35;25.15;;;9.70;99.90;;;;;;5056676;28;20059;-71
2023/03/18 06:54:15;;;;;;;41.53;26.05;;;9.70;99.90;;;;;;5059500;28;20044;-71
2023/03/18 06:56:42;;;;;;;41.28;25.20;;;9.70;99.90;;;;;;5057008;28;20041;-71
2023/03/18 06:59:09;;;;;;;39.17;25.88;;;9.70;99.90;;;;;;5043297;28;20094;-71
2023/03/18 07:01:35;;;;;;;40.33;25.02;;;9.70;99.90;;;;;;5059437;28;20101;-71
2023/03/18 07:04:02;;;;;;;45.67;25.92;;;9.70;99.90;;;;;;5059920;28;20584;-71
2023/03/18 07:06:29;;;;;;;41.35;26.42;;;9.80;99.90;;;;;;5061255;28;20382;-71
2023/03/18 07:08:56;;;;;;;42.03;26.95;;;9.80;99.90;;;;;;5061494;28;20051;-71
2023/03/18 07:11:22;;;;;;;38.42;25.58;;;9.90;99.90;;;;;;5056027;28;20500;-70
2023/03/18 07:13:48;;;;;;;37.83;24.92;;;9.90;99.90;;;;;;5059950;28;20056;-71
2023/03/18 07:16:14;;;;;;;35.00;24.58;;;9.90;99.90;;;;;;5060114;28;20097;-71
2023/03/18 07:18:41;;;;;;;35.78;24.65;;;10.00;99.90;;;;;;5059491;28;20413;-71
2023/03/18 07:21:08;;;;;;;36.70;25.08;;;10.30;99.90;;;;;;5059587;28;20906;-71
2023/03/18 07:23:34;;;;;;;42.72;25.65;;;10.00;99.90;;;;;;5040059;28;20076;-70
2023/03/18 07:26:00;;;;;;;39.08;26.80;;;10.10;99.90;;;;;;5056067;28;20786;-71
2023/03/18 07:28:26;;;;;;;38.85;24.65;;;10.20;99.90;;;;;;5053270;28;20044;-71
2023/03/18 07:30:51;;;;;;;35.60;23.90;;;10.50;99.90;;;;;;5060601;28;20468;-71
2023/03/18 07:33:18;;;;;;;40.78;23.88;;;10.30;99.90;;;;;;5057095;28;20109;-71
2023/03/18 07:35:43;;;;;;;39.60;24.00;;;10.30;99.90;;;;;;5061115;28;20127;-71
2023/03/18 07:38:10;;;;;;;38.80;24.77;;;10.40;99.90;;;;;;5057760;28;20047;-71
2023/03/18 07:40:36;;;;;;;34.80;24.10;;;10.40;99.90;;;;;;5060132;28;20068;-72
2023/03/18 07:43:06;;;;;;;34.35;23.52;;;10.40;99.90;;;;;;5053580;28;20048;-71
2023/03/18 07:45:33;;;;;;;38.92;25.33;;;10.40;99.90;;;;;;5061658;28;20543;-71
2023/03/18 07:47:59;;;;;;;39.47;25.48;;;10.40;99.90;;;;;;5041492;28;20045;-71
2023/03/18 07:50:25;;;;;;;37.15;24.45;;;10.40;99.90;;;;;;5055919;28;20125;-70
2023/03/18 07:52:51;;;;;;;35.72;23.75;;;10.40;99.90;;;;;;5055216;28;20467;-71
2023/03/18 07:55:19;;;;;;;36.88;24.95;;;10.50;99.90;;;;;;5060287;28;20045;-71
2023/03/18 07:57:46;;;;;;;38.58;25.48;;;10.50;99.90;;;;;;5059604;28;20494;-71
2023/03/18 08:00:13;;;;;;;36.60;24.92;;;10.50;99.90;;;;;;5058925;28;20072;-71
2023/03/18 08:02:39;;;;;;;37.42;24.88;;;10.50;99.90;;;;;;5060395;28;20478;-71
2023/03/18 08:05:06;;;;;;;35.45;24.20;;;10.50;99.90;;;;;;5047994;28;21759;-71
2023/03/18 08:07:33;;;;;;;40.22;24.75;;;10.50;99.90;;;;;;5035428;28;20055;-71
2023/03/18 08:10:00;;;;;;;33.92;24.70;;;10.50;99.90;;;;;;5045613;28;20041;-70
2023/03/18 08:12:27;;;;;;;38.42;26.02;;;10.60;99.90;;;;;;5045906;28;20064;-71
2023/03/18 08:14:53;;;;;;;38.63;25.80;;;10.60;99.90;;;;;;5052761;28;20049;-71
2023/03/18 08:17:19;;;;;;;39.75;26.27;;;10.60;99.90;;;;;;5051495;28;20409;-71
2023/03/18 08:19:45;;;;;;;35.10;24.15;;;10.70;99.90;;;;;;5032542;28;20516;-71
2023/03/18 08:22:11;;;;;;;36.88;24.20;;;10.70;99.90;;;;;;5057692;28;20048;-71
2023/03/18 08:24:37;;;;;;;36.30;23.23;;;10.70;99.90;;;;;;5046954;28;20711;-70
2023/03/18 08:27:04;;;;;;;36.58;23.65;;;10.70;99.90;;;;;;5057364;28;20651;-70
2023/03/18 08:29:31;;;;;;;38.67;25.58;;;10.70;99.90;;;;;;5042468;28;20052;-71
2023/03/18 08:31:57;;;;;;;36.88;24.20;;;10.70;99.90;;;;;;5053427;28;20205;-70
2023/03/18 08:34:23;;;;;;;38.67;25.35;;;10.80;99.90;;;;;;5050556;28;20123;-73
2023/03/18 08:36:49;;;;;;;37.75;24.73;;;10.80;99.90;;;;;;5053544;28;20048;-74
2023/03/18 08:39:15;;;;;;;38.58;23.85;;;10.80;99.90;;;;;;5049758;28;20101;-72
2023/03/18 08:41:41;;;;;;;34.03;23.55;;;10.80;99.90;;;;;;5046375;28;20064;-71
2023/03/18 08:44:09;;;;;;;35.50;23.70;;;10.80;99.90;;;;;;5048750;28;20051;-73
2023/03/18 08:46:37;;;;;;;37.13;24.90;;;10.80;99.90;;;;;;5038169;28;20048;-69
2023/03/18 08:49:04;;;;;;;40.83;25.35;;;10.80;99.90;;;;;;5053460;28;20044;-71
2023/03/18 08:51:31;;;;;;;35.25;23.05;;;10.80;99.90;;;;;;5056986;28;20048;-71
2023/03/18 08:53:57;;;;;;;35.53;24.05;;;10.80;99.90;;;;;;5051533;28;20047;-76
2023/03/18 08:56:23;;;;;;;37.50;24.80;;;10.80;99.90;;;;;;5055648;28;20040;-76
2023/03/18 08:58:49;;;;;;;36.08;25.00;;;10.80;99.90;;;;;;5054080;28;20048;-74
2023/03/18 09:01:16;;;;;;;36.50;25.10;;;10.80;99.90;;;;;;5054894;28;20528;-70
2023/03/18 09:03:43;;;;;;;36.80;24.45;;;10.80;99.90;;;;;;5046058;28;20092;-71
2023/03/18 09:06:11;;;;;;;35.63;23.80;;;10.80;99.90;;;;;;5038117;28;20114;-71
2023/03/18 09:08:38;;;;;;;37.90;25.77;;;10.80;99.90;;;;;;5049607;28;20301;-71
2023/03/18 09:11:06;;;;;;;36.75;24.70;;;10.90;99.90;;;;;;5079811;28;20981;-71
2023/03/18 09:13:32;;;;;;;36.72;24.10;;;10.90;99.90;;;;;;5040994;28;20193;-70
2023/03/18 09:15:58;;;;;;;40.15;26.48;;;10.90;99.90;;;;;;5052376;28;20060;-72
2023/03/18 09:18:24;;;;;;;37.00;25.10;;;11.00;99.90;;;;;;5046340;28;20045;-71
2023/03/18 09:20:50;;;;;;;37.70;26.15;;;11.00;99.90;;;;;;5048740;28;20579;-71
2023/03/18 09:23:19;;;;;;;37.65;24.83;;;11.10;99.90;;;;;;5045276;28;20072;-74
2023/03/18 09:25:45;;;;;;;39.35;25.50;;;11.10;99.90;;;;;;5044514;28;20391;-71
2023/03/18 09:28:13;;;;;;;36.40;25.17;;;11.10;99.90;;;;;;5048661;28;20048;-75
2023/03/18 09:30:39;;;;;;;38.42;25.65;;;11.10;99.90;;;;;;5073456;28;20494;-71
2023/03/18 09:33:06;;;;;;;39.05;25.38;;;11.20;99.90;;;;;;5075242;28;20068;-75
2023/03/18 09:35:33;;;;;;;36.20;25.35;;;11.20;99.90;;;;;;5041618;28;20076;-75
2023/03/18 09:38:00;;;;;;;34.33;25.20;;;11.30;99.90;;;;;;5044434;28;20541;-75
2023/03/18 12:36:21;;;;;;;20.30;13.25;;;14.40;99.90;;;;;;5139296;27;20126;-82
2023/03/18 12:39:07;;;;;;;18.88;12.60;;;14.40;99.90;;;;;;5072807;27;20522;-84
2023/03/18 12:42:08;;;;;;;19.48;11.77;;;14.40;99.90;;;;;;5131960;27;20047;-87
2023/03/18 12:44:51;;;;;;;18.10;10.50;;;14.60;99.90;;;;;;5114104;27;20097;-79
2023/03/18 12:47:29;;;;;;;18.35;11.05;;;14.70;99.90;;;;;;5109314;27;20133;-83
2023/03/18 12:50:06;;;;;;;16.60;10.05;;;14.80;99.90;;;;;;5122967;27;20043;-81
2023/03/18 12:52:50;;;;;;;13.00;9.07;;;14.90;99.90;;;;;;5097572;27;20051;-81
2023/03/18 12:55:52;;;;;;;13.02;8.57;;;15.00;99.90;;;;;;5135947;27;20039;-78
2023/03/18 12:58:49;;;;;;;14.60;7.85;;;15.00;99.90;;;;;;5089425;27;20031;-80
2023/03/18 13:01:20;;;;;;;12.95;7.43;;;15.10;99.90;;;;;;5134426;27;20027;-81
2023/03/18 13:03:57;;;;;;;;;;;15.10;99.90;;;;;;5120837;27;20027;-78
2023/03/18 13:06:29;;;;;;;11.73;6.85;;;15.20;99.90;;;;;;5161870;27;19923;-79
2023/03/18 13:09:33;;;;;;;13.93;8.00;;;15.20;99.90;;;;;;5115310;27;20050;-81
2023/03/18 13:12:21;;;;;;;10.75;7.13;;;15.20;99.90;;;;;;5139187;27;20047;-81
2023/03/18 13:15:17;;;;;;;11.35;6.45;;;15.20;99.90;;;;;;5111514;27;20526;-80
2023/03/18 13:17:47;;;;;;;11.23;6.25;;;15.20;99.90;;;;;;5142163;27;20791;-81
2023/03/18 13:20:36;;;;;;;8.93;5.93;;;15.20;99.90;;;;;;5109663;27;20039;-80
2023/03/18 13:23:26;;;;;;;10.43;5.75;;;15.10;99.90;;;;;;5115916;27;20038;-83
2023/03/18 13:26:24;;;;;;;11.85;6.70;;;15.10;99.90;;;;;;5135163;27;20066;-82
2023/03/18 13:29:09;;;;;;;9.10;5.47;;;15.10;99.90;;;;;;5093001;27;20922;-80
2023/03/18 13:32:03;;;;;;;9.18;5.82;;;15.10;99.90;;;;;;5097735;27;20436;-79
2023/03/18 13:34:54;;;;;;;9.70;4.57;;;15.10;99.90;;;;;;5117492;27;20067;-82
2023/03/18 13:37:34;;;;;;;10.10;5.00;;;15.10;99.90;;;;;;5100122;27;20495;-81
2023/03/18 13:40:04;;;;;;;8.73;5.20;;;15.10;99.90;;;;;;5137053;27;20053;-77
2023/03/18 13:42:36;;;;;;;10.95;5.15;;;15.10;99.90;;;;;;5101875;27;20047;-79
2023/03/18 13:45:32;;;;;;;9.55;4.57;;;15.00;99.90;;;;;;5114301;27;20130;-77
2023/03/18 13:48:21;;;;;;;7.72;3.15;;;15.10;99.90;;;;;;5104723;27;20528;-77
2023/03/18 13:50:50;;;;;;;6.18;2.80;;;15.10;99.90;;;;;;5098339;27;20325;-78
2023/03/18 13:53:32;;;;;;;7.47;3.45;;;15.10;99.90;;;;;;5087551;27;20042;-78
2023/03/18 13:55:58;;;;;;;8.07;3.47;;;15.10;99.90;;;;;;5093923;27;20077;-80
2023/03/18 13:58:44;;;;;;;8.07;3.20;;;15.10;99.90;;;;;;5109036;27;20919;-79
2023/03/18 14:01:34;;;;;;;7.32;3.28;;;15.10;99.90;;;;;;5102927;27;20175;-79
2023/03/18 14:04:29;;;;;;;8.05;3.58;;;15.10;99.90;;;;;;5088272;27;20046;-78
2023/03/18 14:07:10;;;;;;;8.50;4.03;;;15.10;99.90;;;;;;5118131;27;20043;-79
2023/03/18 14:10:04;;;;;;;6.53;3.87;;;15.10;99.90;;;;;;5123607;27;20043;-80
2023/03/18 14:12:29;;;;;;;7.40;4.13;;;15.10;99.90;;;;;;5112685;27;20328;-79
2023/03/18 14:15:23;;;;;;;8.80;4.35;;;15.10;99.90;;;;;;5090052;27;20039;-79
2023/03/18 14:17:55;;;;;;;8.63;4.80;;;15.00;99.90;;;;;;5083864;27;20436;-79
2023/03/18 14:20:42;;;;;;;9.05;4.43;;;15.10;99.90;;;;;;5133956;27;20495;-79
2023/03/18 14:23:33;;;;;;;9.38;5.07;;;15.10;99.90;;;;;;5139054;27;20096;-79
2023/03/18 14:26:28;;;;;;;8.30;4.57;;;15.10;99.90;;;;;;5084486;27;20454;-79
2023/03/18 14:29:14;;;;;;;10.70;4.35;;;15.10;99.90;;;;;;5100855;27;20416;-80
2023/03/18 14:31:41;;;;;;;8.45;4.53;;;15.10;99.90;;;;;;5104069;27;20039;-79
2023/03/18 14:34:19;;;;;;;7.88;5.13;;;15.10;99.90;;;;;;5085731;27;20080;-79
2023/03/18 14:36:50;;;;;;;10.32;5.03;;;15.10;99.90;;;;;;5126119;27;20043;-79
2023/03/18 14:39:37;;;;;;;10.32;5.25;;;15.20;99.90;;;;;;5092381;27;20042;-79
2023/03/18 14:42:12;;;;;;;9.52;4.65;;;15.20;99.90;;;;;;5120584;27;20269;-80
2023/03/18 14:44:51;;;;;;;9.52;4.50;;;15.20;99.90;;;;;;5092212;27;20134;-79
2023/03/18 14:47:30;;;;;;;9.07;4.10;;;15.20;99.90;;;;;;5130908;27;20050;-81
2023/03/18 14:50:02;;;;;;;10.73;5.20;;;15.20;99.90;;;;;;5102898;27;20035;-81
2023/03/18 14:52:36;;;;;;;10.65;5.03;;;15.20;99.90;;;;;;5107969;27;20130;-81
2023/03/18 14:55:07;;;;;;;11.23;4.82;;;15.20;99.90;;;;;;5105246;27;20131;-82
2023/03/18 14:57:33;;;;;;;10.73;5.25;;;15.20;99.90;;;;;;5101979;27;20043;-79
2023/03/18 15:00:00;;;;;;;8.48;4.85;;;15.20;99.90;;;;;;5102102;27;20446;-79
2023/03/18 15:02:36;;;;;;;11.43;5.10;;;15.10;99.90;;;;;;5097499;27;20053;-82
2023/03/18 15:05:05;;;;;;;11.45;5.57;;;15.20;99.90;;;;;;5089008;27;20473;-81
2023/03/18 15:07:40;;;;;;;10.68;5.78;;;15.20;99.90;;;;;;5113308;27;20053;-81
2023/03/18 15:10:16;;;;;;;9.70;5.53;;;15.20;99.90;;;;;;5134327;27;20031;-80
2023/03/18 15:12:42;;;;;;;8.70;5.72;;;15.20;99.90;;;;;;5116614;27;20063;-81
2023/03/18 15:15:16;;;;;;;10.55;5.53;;;15.10;99.90;;;;;;5114418;27;20075;-82
2023/03/18 15:17:48;;;;;;;12.43;6.07;;;15.10;99.90;;;;;;5099535;27;20532;-82
2023/03/18 15:20:14;;;;;;;;;;;15.20;99.90;;;;;;5152748;27;20078;-81
2023/03/18 15:22:40;;;;;;;12.70;5.53;;;15.10;99.90;;;;;;5138411;27;19933;-82
2023/03/18 15:25:15;;;;;;;10.95;5.22;;;15.20;99.90;;;;;;5113461;27;20039;-81
2023/03/18 15:27:41;;;;;;;10.43;5.00;;;15.10;99.90;;;;;;5143545;27;20155;-81
2023/03/18 15:30:24;;;;;;;9.48;5.18;;;15.10;99.90;;;;;;5126438;27;20035;-81
2023/03/18 15:32:53;;;;;;;10.10;5.38;;;15.10;99.90;;;;;;5101089;27;20250;-82
2023/03/18 15:35:25;;;;;;;9.10;4.90;;;15.10;99.90;;;;;;5090572;27;20054;-82
2023/03/18 15:38:15;;;;;;;10.25;4.72;;;15.00;99.90;;;;;;5102612;27;20141;-82
2023/03/18 15:40:45;;;;;;;9.20;5.00;;;15.00;99.90;;;;;;5107951;27;20566;-82
2023/03/18 15:43:29;;;;;;;8.93;5.45;;;15.00;99.90;;;;;;5100457;27;20404;-81
2023/03/18 15:46:03;;;;;;;11.20;5.72;;;15.00;99.90;;;;;;5120689;27;20039;-82